Home > Products > Valid Products > MTR

000
SAUS45 KPUB 020205 COR
MTRSPD
METAR KSPD 020156Z AUTO 15009KT 15/03 A2980 RMK AO1 SLP047 T01500028





000
SAUS45 KPUB 020057
MTRSPD
METAR KSPD 020056Z AUTO 17008KT 18/01 A2980 RMK AO1 SLP051 T01780011





000
SAUS45 KPUB 012357
MTRSPD
METAR KSPD 012356Z AUTO 16011KT 23/01 A2979 RMK AO1 SLP040 T02280011
10256 20217 55004





000
SAUS45 KPUB 012257
MTRSPD
METAR KSPD 012256Z AUTO 15015KT 24/02 A2978 RMK AO1 SLP036 T02440017





000
SAUS45 KPUB 012158
MTRSPD
METAR KSPD 012156Z AUTO 12008G16KT 24/01 A2979 RMK AO1 SLP036
T02440011





000
SAUS45 KPUB 012058
MTRSPD
METAR KSPD 012056Z AUTO 14010KT 24/02 A2980 RMK AO1 SLP037 T02440017
56019





000
SAUS45 KPUB 011957
MTRSPD
METAR KSPD 011956Z AUTO VRB03KT 23/02 A2981 RMK AO1 SLP048 T02280017





000
SAUS45 KPUB 011857
MTRSPD
METAR KSPD 011856Z AUTO VRB03KT 23/03 A2984 RMK AO1 SLP056 T02280028





000
SAUS45 KPUB 011757
MTRSPD
METAR KSPD 011756Z AUTO VRB06KT 22/03 A2986 RMK AO1 SLP067 T02220033
10222 20078 58003





000
SAUS45 KPUB 011657
MTRSPD
METAR KSPD 011656Z AUTO VRB06KT 21/04 A2988 RMK AO1 SLP070 T02060039





000
SAUS45 KPUB 011558
MTRSPD
METAR KSPD 011556Z AUTO 36012KT 19/04 A2989 RMK AO1 SLP075 T01890044





000
SAUS45 KPUB 011458
MTRSPD
METAR KSPD 011456Z AUTO 33017G21KT 17/04 A2987 RMK AO1 SLP072
T01670039 51012





000
SAUS45 KPUB 011357
MTRSPD
METAR KSPD 011356Z AUTO 31014KT 13/03 A2987 RMK AO1 SLP077 T01330033





000
SAUS45 KPUB 011257
MTRSPD
METAR KSPD 011256Z AUTO 31007KT 09/02 A2985 RMK AO1 SLP072 T00890022





000
SAUS45 KPUB 011157
MTRSPD
METAR KSPD 011156Z AUTO 05006KT 08/02 A2983 RMK AO1 SLP058 T00830022
10122 20072 53002





000
SAUS45 KPUB 011057
MTRSPD
METAR KSPD 011056Z AUTO 30006KT 08/02 A2982 RMK AO1 SLP050 T00830022





000
SAUS45 KPUB 010957
MTRSPD
METAR KSPD 010956Z AUTO 29009KT 10/02 A2982 RMK AO1 SLP047 T01000022





000
SAUS45 KPUB 010857
MTRSPD
METAR KSPD 010856Z AUTO 29009KT 12/02 A2982 RMK AO1 SLP048 T01170022
50004





000
SAUS45 KPUB 010758
MTRSPD
METAR KSPD 010756Z AUTO 29006KT 08/04 A2983 RMK AO1 SLP054 T00830039





000
SAUS45 KPUB 010657
MTRSPD
METAR KSPD 010656Z AUTO 30010KT 09/05 A2982 RMK AO1 SLP054 T00890050
402440050





000
SAUS45 KPUB 010558
MTRSPD
METAR KSPD 010556Z AUTO 31004KT 08/04 A2981 RMK AO1 SLP049 T00830039
10217 20083 55001





000
SAUS45 KPUB 010457
MTRSPD
METAR KSPD 010456Z AUTO 34004KT 11/05 A2980 RMK AO1 SLP045 T01110050





000
SAUS45 KPUB 010357
MTRSPD
METAR KSPD 010356Z AUTO 00000KT 12/06 A2981 RMK AO1 SLP049 T01220056





000
SAUS45 KPUB 010257
MTRSPD
METAR KSPD 010256Z AUTO 00000KT 13/06 A2982 RMK AO1 SLP057 T01280056
53010





000
SAUS45 KPUB 010157
MTRSPD
METAR KSPD 010156Z AUTO 08003KT 13/07 A2980 RMK AO1 SLP058 T01330067





000
SAUS45 KPUB 010057
MTRSPD
METAR KSPD 010056Z AUTO 11006KT 16/06 A2979 RMK AO1 SLP057 T01610056





000
SAUS45 KPUB 302357
MTRSPD
METAR KSPD 302356Z AUTO 16008KT 22/01 A2978 RMK AO1 SLP042 T02170006
10244 20217 56003





000
SAUS45 KPUB 302257
MTRSPD
METAR KSPD 302256Z AUTO 00000KT 23/M02 A2978 RMK AO1 SLP039
T02331022





000
SAUS45 KPUB 302157
MTRSPD
METAR KSPD 302156Z AUTO VRB05KT 24/M02 A2979 RMK AO1 SLP037
T02391017





000
SAUS45 KPUB 302057
MTRSPD
METAR KSPD 302056Z AUTO VRB06KT 24/M01 A2979 RMK AO1 SLP039
T02391011 58016





000
SAUS45 KPUB 301957
MTRSPD
METAR KSPD 301956Z AUTO 00000KT 23/M01 A2981 RMK AO1 SLP043
T02331011





000
SAUS45 KPUB 301857
MTRSPD
METAR KSPD 301856Z AUTO 23006KT 22/M01 A2983 RMK AO1 SLP050
T02221006





000
SAUS45 KPUB 301757
MTRSPD
METAR KSPD 301756Z AUTO VRB04KT 22/01 A2985 RMK AO1 SLP053 T02220011
10228 20050 58010





000
SAUS45 KPUB 301658
MTRSPD
METAR KSPD 301656Z AUTO 32010G17KT 21/02 A2986 RMK AO1 SLP060
T02060022





000
SAUS45 KPUB 301557
MTRSPD
METAR KSPD 301556Z AUTO 33007KT 18/06 A2988 RMK AO1 SLP069 T01830056





000
SAUS45 KPUB 301457
MTRSPD
METAR KSPD 301456Z AUTO 33005KT 14/09 A2988 RMK AO1 SLP079 T01390094
50001





000
SAUS45 KPUB 301358
MTRSPD
METAR KSPD 301356Z AUTO 31006KT 09/08 A2989 RMK AO1 SLP086 T00890078





000
SAUS45 KPUB 301257
MTRSPD
METAR KSPD 301256Z AUTO 31006KT 05/05 A2988 RMK AO1 SLP083 T00500050





000
SAUS45 KPUB 301157
MTRSPD
METAR KSPD 301156Z AUTO 31004KT 07/06 A2988 RMK AO1 SLP074 70004
T00720061 10139 20072 55007





000
SAUS45 KPUB 301057
MTRSPD
METAR KSPD 301056Z AUTO 00000KT 07/07 A2987 RMK AO1 SLP071 T00720072





000
SAUS45 KPUB 300958
MTRSPD
METAR KSPD 300956Z AUTO 23005KT 09/09 A2988 RMK AO1 SLP067 T00890089





000
SAUS45 KPUB 300857
MTRSPD
METAR KSPD 300856Z AUTO 21004KT 09/09 A2990 RMK AO1 SLP072 T00940089
58006





000
SAUS45 KPUB 300757
MTRSPD
METAR KSPD 300756Z AUTO 00000KT 11/11 A2992 RMK AO1 SLP076 T01110106





000
SAUS45 KPUB 300657
MTRSPD
METAR KSPD 300656Z AUTO 22009KT 13/13 A2991 RMK AO1 SLP074 T01330128
402720133





000
SAUS45 KPUB 300557
MTRSPD
METAR KSPD 300556Z AUTO 21007KT 14/14 A2992 RMK AO1 SLP077 60004
T01390139 10228 20139 58003





000
SAUS45 KPUB 300458
MTRSPD
METAR KSPD 300456Z AUTO 19010KT 14/14 A2992 RMK AO1 SLP077 T01440139





000
SAUS45 KPUB 300357
MTRSPD
METAR KSPD 300356Z AUTO 20012KT 14/13 A2994 RMK AO1 SLP089 T01440133





000
SAUS45 KPUB 300258
MTRSPD
METAR KSPD 300256Z AUTO 20011KT 14/12 A2993 RMK AO1 SLP090 60004
T01390122 51024





000
SAUS45 KPUB 300158
MTRSPD
METAR KSPD 300156Z AUTO 19010KT 16/14 A2990 RMK AO1 PK WND
18036/0112 SLP080 P0004 T01560139





000
SAUS45 KPUB 300058
MTRSPD
METAR KSPD 300056Z AUTO 17028G35KT 19/14 A2989 RMK AO1 PK WND
17041/0043 SLP076 T01890144





000
SAUS45 KPUB 292357
MTRSPD
METAR KSPD 292356Z AUTO 17025G35KT 23/12 A2985 RMK AO1 PK WND
16037/2319 SLP054 T02280122 10272 20228 56016





000
SAUS45 KPUB 292257
MTRSPD
METAR KSPD 292256Z AUTO 17027G35KT 24/12 A2986 RMK AO1 PK WND
18037/2225 SLP056 T02390117





000
SAUS45 KPUB 292158
MTRSPD
METAR KSPD 292156Z AUTO 17025G33KT 25/12 A2987 RMK AO1 PK WND
18036/2112 SLP058 T02500122





000
SAUS45 KPUB 292057
MTRSPD
METAR KSPD 292056Z AUTO 18027G35KT 27/12 A2991 RMK AO1 PK WND
17035/2055 SLP067 T02670122 56034





000
SAUS45 KPUB 291957
MTRSPD
METAR KSPD 291956Z AUTO 19023G34KT 27/13 A2994 RMK AO1 PK WND
16034/1951 SLP077 T02670128





000
SAUS45 KPUB 291857
MTRSPD
METAR KSPD 291856Z AUTO 20021G29KT 26/13 A2998 RMK AO1 PK WND
18032/1814 SLP093 T02560133





000
SAUS45 KPUB 291758
MTRSPD
METAR KSPD 291756Z AUTO 19017G29KT 24/13 A3002 RMK AO1 PK WND
19031/1700 SLP108 T02440133 10244 20133 55009





000
SAUS45 KPUB 291657
MTRSPD
METAR KSPD 291656Z AUTO 19022G30KT 23/13 A3002 RMK AO1 PK WND
19033/1639 SLP110 T02330128





000
SAUS45 KPUB 291557
MTRSPD
METAR KSPD 291556Z AUTO 19024G30KT 21/13 A3004 RMK AO1 PK WND
20030/1534 SLP117 T02060128





000
SAUS45 KPUB 291457
MTRSPD
METAR KSPD 291456Z AUTO 18022G29KT 18/13 A3005 RMK AO1 PK WND
18031/1417 SLP126 T01780128 51005





000
SAUS45 KPUB 291357
MTRSPD
METAR KSPD 291356Z AUTO 18021G27KT 16/13 A3005 RMK AO1 PK WND
18027/1350 SLP126 T01610128





000
SAUS45 KPUB 291257
MTRSPD
METAR KSPD 291256Z AUTO 17014KT 13/12 A3005 RMK AO1 SLP129 T01330122





000
SAUS45 KPUB 291157
MTRSPD
METAR KSPD 291156Z AUTO 17014KT 14/12 A3004 RMK AO1 SLP119 T01440122
10167 20139 57001





000
SAUS45 KPUB 291057
MTRSPD
METAR KSPD 291056Z AUTO 18017KT 15/12 A3004 RMK AO1 SLP115 T01500122





000
SAUS45 KPUB 290957
MTRSPD
METAR KSPD 290956Z AUTO 18013KT 14/12 A3004 RMK AO1 PK WND
18027/0907 SLP118 T01440122





000
SAUS45 KPUB 290857
MTRSPD
METAR KSPD 290856Z AUTO 18018KT 15/12 A3004 RMK AO1 SLP116 T01500122
58005





000
SAUS45 KPUB 290757
MTRSPD
METAR KSPD 290756Z AUTO 19017KT 15/12 A3006 RMK AO1 PK WND
19026/0708 SLP122 T01500117





000
SAUS45 KPUB 290657
MTRSPD
METAR KSPD 290656Z AUTO 18019KT 16/12 A3006 RMK AO1 PK WND
19027/0613 SLP119 T01560117 402670128





000
SAUS45 KPUB 290557
MTRSPD
METAR KSPD 290556Z AUTO 18018KT 17/12 A3006 RMK AO1 SLP121 T01670117
10233 20161 58001





000
SAUS45 KPUB 290457
MTRSPD
METAR KSPD 290456Z AUTO 18018KT 17/11 A3007 RMK AO1 PK WND
18027/0413 SLP125 T01670106





000
SAUS45 KPUB 290358
MTRSPD
METAR KSPD 290356Z AUTO 18017KT 18/11 A3006 RMK AO1 SLP124 T01830106





000
SAUS45 KPUB 290257
MTRSPD
METAR KSPD 290256Z AUTO 16013KT 18/10 A3006 RMK AO1 SLP129 T01830100
53013





    US Dept of Commerce
    National Oceanic and Atmospheric Administration
    National Weather Service
    1325 East West Highway
    Silver Spring, MD 20910
    Page Author: NWS Internet Services Team
Disclaimer
Information Quality
Credits
Glossary
Privacy Policy
Freedom of Information Act (FOIA)
About Us
Career Opportunities